Time;durP1;ratioP1;P1;durP2;ratioP2;P2;SDS_P1;SDS_P2;PMS_P1;PMS_P2;Temp;Humidity;BMP_temperature;BMP_pressure;BME280_temperature;BME280_humidity;BME280_pressure;Samples;Min_cycle;Max_cycle;Signal;HPM_P1;HPM_P2
2022/10/05 00:00:22;;;;;;;;;;;;;;;11.81;73.53;101446.66;5059642;28;19943;-75
2022/10/05 00:02:51;;;;;;;;;;;;;;;11.47;75.09;101453.38;5059682;28;19929;-75
2022/10/05 00:05:22;;;;;;;;;;;;;;;11.15;77.32;101435.56;5063893;28;19932;-75
2022/10/05 00:07:50;;;;;;;;;;;;;;;11.04;78.44;101428.16;5054994;28;19929;-75
2022/10/05 00:10:18;;;;;;;;;;;;;;;11.17;78.30;101428.47;5062802;28;19924;-75
2022/10/05 00:12:45;;;;;;;;;;;;;;;11.50;76.72;101429.63;5052210;28;19935;-75
2022/10/05 00:15:12;;;;;;;;;;;;;;;11.51;74.21;101425.22;5062987;28;19967;-75
2022/10/05 00:17:38;;;;;;;;;;;;;;;11.36;74.81;101432.00;5054466;28;19935;-75
2022/10/05 00:20:14;;;;;;;;;;;;;;;11.34;76.06;101440.88;5042998;28;19928;-75
2022/10/05 00:22:40;;;;;;;;;;;;;;;10.92;76.27;101428.66;5059889;28;19936;-75
2022/10/05 00:25:11;;;;;;;;;;;;;;;10.97;78.85;101425.84;5051763;28;19928;-75
2022/10/05 00:27:38;;;;;;;;;;;;;;;11.14;77.41;101418.97;5048088;28;19931;-75
2022/10/05 00:30:10;;;;;;;;;;;;;;;10.88;78.14;101418.34;5070158;28;20389;-75
2022/10/05 00:32:37;;;;;;;;;;;;;;;10.78;79.37;101420.53;5065655;28;19947;-74
2022/10/05 00:35:03;;;;;;;;;;;;;;;10.73;79.51;101407.59;5066567;28;19940;-75
2022/10/05 00:37:29;;;;;;;;;;;;;;;10.46;82.14;101410.47;5065536;28;19925;-74
2022/10/05 00:39:56;;;;;;;;;;;;;;;10.40;82.29;101408.13;5066199;28;19928;-74
2022/10/05 00:42:34;;;;;;;;;;;;;;;10.34;84.70;101397.88;5061060;28;19933;-75
2022/10/05 00:45:02;;;;;;;;;;;;;;;10.60;84.33;101395.91;5067264;28;20292;-74
2022/10/05 00:47:34;;;;;;;;;;;;;;;10.60;84.98;101390.69;5064586;28;20367;-74
2022/10/05 00:50:17;;;;;;;;;;;;;;;10.84;83.87;101395.78;5064870;28;19924;-74
2022/10/05 00:52:49;;;;;;;;;;;;;;;10.71;83.57;101377.09;5065262;28;19924;-75
2022/10/05 00:55:21;;;;;;;;;;;;;;;10.66;84.01;101379.06;5066680;28;20320;-75
2022/10/05 00:57:55;;;;;;;;;;;;;;;10.71;84.53;101369.25;5066517;28;20453;-75
2022/10/05 01:00:24;;;;;;;;;;;;;;;10.55;84.88;101374.25;5064628;28;19929;-75
2022/10/05 01:02:54;;;;;;;;;;;;;;;10.75;84.54;101370.81;5061137;28;19931;-75
2022/10/05 01:05:34;;;;;;;;;;;;;;;11.12;82.83;101377.97;5067474;28;19924;-75
2022/10/05 01:08:05;;;;;;;;;;;;;;;11.04;82.52;101383.53;5063255;28;20291;-75
2022/10/05 01:10:36;;;;;;;;;;;;;;;11.03;82.60;101373.09;5064204;28;19932;-75
2022/10/05 01:13:07;;;;;;;;;;;;;;;11.22;81.70;101379.25;5063785;28;19924;-75
2022/10/05 01:15:36;;;;;;;;;;;;;;;11.36;80.30;101376.84;5067793;28;19924;-74
2022/10/05 01:18:05;;;;;;;;;;;;;;;11.26;80.79;101380.81;5056902;28;19974;-74
2022/10/05 01:20:39;;;;;;;;;;;;;;;11.04;81.48;101391.41;5048230;28;20403;-73
2022/10/05 01:23:29;;;;;;;;;;;;;;;11.19;80.89;101382.88;5049368;28;20402;-74
2022/10/05 01:26:02;;;;;;;;;;;;;;;10.97;82.07;101378.63;5057810;28;19974;-74
2022/10/05 01:28:33;;;;;;;;;;;;;;;11.27;80.15;101374.63;5064942;28;19925;-74
2022/10/05 01:31:01;;;;;;;;;;;;;;;11.15;80.77;101370.81;5038138;28;19925;-74
2022/10/05 01:33:33;;;;;;;;;;;;;;;10.78;82.63;101377.69;5055507;28;19928;-74
2022/10/05 01:36:02;;;;;;;;;;;;;;;10.47;84.32;101383.34;5065601;28;19931;-76
2022/10/05 01:38:36;;;;;;;;;;;;;;;10.45;83.95;101388.69;5065438;28;19924;-74
2022/10/05 01:41:07;;;;;;;;;;;;;;;10.35;85.12;101387.31;5065285;28;19924;-74
2022/10/05 01:43:38;;;;;;;;;;;;;;;10.31;85.03;101382.28;5066509;28;20324;-74
2022/10/05 01:46:10;;;;;;;;;;;;;;;10.69;83.36;101382.41;5085046;28;19924;-74
2022/10/05 01:48:42;;;;;;;;;;;;;;;10.69;82.84;101379.78;5091253;28;19924;-74
2022/10/05 01:51:11;;;;;;;;;;;;;;;10.82;82.68;101388.00;5092243;28;19933;-75
2022/10/05 01:53:45;;;;;;;;;;;;;;;10.83;81.99;101375.75;5080547;28;19925;-73
2022/10/05 01:56:19;;;;;;;;;;;;;;;10.64;82.96;101376.50;5081218;28;19913;-73
2022/10/05 01:58:53;;;;;;;;;;;;;;;10.56;83.25;101386.47;5090288;28;19912;-73
2022/10/05 02:01:23;;;;;;;;;;;;;;;10.50;83.20;101375.34;5079226;28;19924;-73
2022/10/05 02:03:52;;;;;;;;;;;;;;;11.03;81.05;101378.34;5069458;28;19925;-73
2022/10/05 02:06:20;;;;;;;;;;;;;;;11.08;80.21;101371.13;5067520;28;19924;-73
2022/10/05 02:08:48;;;;;;;;;;;;;;;11.44;79.18;101372.13;5067273;28;19931;-73
2022/10/05 02:11:15;;;;;;;;;;;;;;;11.51;78.34;101375.31;5050410;28;19924;-73
2022/10/05 02:13:43;;;;;;;;;;;;;;;11.56;78.33;101386.47;5046596;28;20400;-74
2022/10/05 02:16:15;;;;;;;;;;;;;;;11.80;76.75;101380.13;5067245;28;19925;-73
2022/10/05 02:18:45;;;;;;;;;;;;;;;11.56;76.49;101379.47;5070139;28;19931;-74
2022/10/05 02:21:11;;;;;;;;;;;;;;;11.49;77.37;101378.00;5071040;28;19944;-74
2022/10/05 02:23:40;;;;;;;;;;;;;;;11.30;77.56;101376.28;5059715;28;19928;-75
2022/10/05 02:26:07;;;;;;;;;;;;;;;11.08;79.36;101379.00;5050608;28;19986;-74
2022/10/05 02:28:36;;;;;;;;;;;;;;;11.03;79.66;101375.72;5047856;28;19975;-75
2022/10/05 02:31:06;;;;;;;;;;;;;;;11.01;80.39;101375.78;5050389;28;19933;-75
2022/10/05 02:33:35;;;;;;;;;;;;;;;10.93;80.45;101371.81;5072158;28;19925;-75
2022/10/05 02:36:02;;;;;;;;;;;;;;;10.63;81.86;101372.19;5071893;28;19931;-74
2022/10/05 02:38:35;;;;;;;;;;;;;;;10.59;82.42;101373.22;5082942;28;20339;-76
2022/10/05 02:41:05;;;;;;;;;;;;;;;10.95;81.11;101370.81;5060415;28;20164;-75
2022/10/05 02:43:39;;;;;;;;;;;;;;;11.31;78.95;101368.31;5036406;28;20320;-75
2022/10/05 02:46:09;;;;;;;;;;;;;;;11.00;80.13;101370.59;5070922;28;19924;-75
2022/10/05 02:48:42;;;;;;;;;;;;;;;11.30;78.51;101371.03;5080794;28;20033;-75
2022/10/05 02:51:13;;;;;;;;;;;;;;;11.52;77.55;101369.16;5065821;28;19932;-73
2022/10/05 02:53:43;;;;;;;;;;;;;;;11.04;79.20;101361.69;5044295;28;19956;-74
2022/10/05 02:56:16;;;;;;;;;;;;;;;10.84;80.70;101365.16;5058530;28;19979;-74
2022/10/05 02:58:49;;;;;;;;;;;;;;;10.80;80.94;101358.34;5070463;28;19995;-74
2022/10/05 03:01:20;;;;;;;;;;;;;;;10.71;81.75;101341.25;5072561;28;20408;-75
2022/10/05 03:03:51;;;;;;;;;;;;;;;10.78;81.60;101344.44;5070523;28;19924;-74
2022/10/05 03:06:21;;;;;;;;;;;;;;;11.18;79.63;101341.78;5069460;28;19932;-75
2022/10/05 03:08:51;;;;;;;;;;;;;;;11.37;78.67;101349.69;5069093;28;20293;-75
2022/10/05 03:11:23;;;;;;;;;;;;;;;10.69;81.55;101340.44;5059783;28;19928;-74
2022/10/05 03:13:55;;;;;;;;;;;;;;;10.78;81.35;101341.84;5048962;28;19925;-74
2022/10/05 03:16:29;;;;;;;;;;;;;;;11.19;79.38;101340.03;5057493;28;19929;-74
2022/10/05 03:19:04;;;;;;;;;;;;;;;11.20;78.56;101333.81;5068755;28;20302;-75
2022/10/05 03:21:43;;;;;;;;;;;;;;;11.09;79.53;101329.06;5068884;28;19963;-74
2022/10/05 03:24:16;;;;;;;;;;;;;;;11.12;79.35;101318.41;5069950;28;19925;-74
2022/10/05 03:26:46;;;;;;;;;;;;;;;11.06;79.50;101318.72;5069752;28;19936;-74
2022/10/05 03:29:20;;;;;;;;;;;;;;;10.71;81.47;101317.63;5067392;28;19929;-74
2022/10/05 03:31:53;;;;;;;;;;;;;;;10.72;81.19;101302.72;5069534;28;19932;-75
2022/10/05 03:34:26;;;;;;;;;;;;;;;10.91;80.88;101305.41;5068453;28;19925;-75
2022/10/05 03:36:55;;;;;;;;;;;;;;;10.49;82.61;101311.59;5069302;28;19930;-75
2022/10/05 03:39:26;;;;;;;;;;;;;;;10.65;81.97;101315.25;5070029;28;19928;-75
2022/10/05 03:41:59;;;;;;;;;;;;;;;10.46;82.95;101310.84;5059017;28;19924;-74
2022/10/05 03:44:30;;;;;;;;;;;;;;;10.57;82.29;101308.63;5076511;28;19924;-75
2022/10/05 03:47:05;;;;;;;;;;;;;;;10.54;82.69;101309.63;5067983;28;19925;-76
2022/10/05 03:49:39;;;;;;;;;;;;;;;10.79;81.50;101313.84;5068113;28;19924;-75
2022/10/05 03:52:09;;;;;;;;;;;;;;;10.47;81.88;101304.69;5085185;28;19924;-75
2022/10/05 03:54:38;;;;;;;;;;;;;;;10.29;83.29;101305.47;5072000;28;19933;-75
2022/10/05 03:57:07;;;;;;;;;;;;;;;10.34;83.69;101312.25;5067135;28;19977;-75
2022/10/05 03:59:38;;;;;;;;;;;;;;;10.65;82.07;101309.16;5066257;28;19931;-76
2022/10/05 04:02:05;;;;;;;;;;;;;;;11.18;79.55;101312.06;5067638;28;20335;-75
2022/10/05 04:04:36;;;;;;;;;;;;;;;11.24;79.32;101317.03;5068934;28;19931;-75
2022/10/05 04:07:03;;;;;;;;;;;;;;;10.89;80.07;101310.72;5066718;28;20460;-75
2022/10/05 04:09:33;;;;;;;;;;;;;;;10.52;81.88;101319.34;5064362;28;19939;-74
2022/10/05 04:12:11;;;;;;;;;;;;;;;10.39;82.68;101312.03;5067385;28;19931;-74
2022/10/05 04:14:39;;;;;;;;;;;;;;;10.02;84.35;101308.25;5067593;28;19924;-75
2022/10/05 04:17:08;;;;;;;;;;;;;;;9.82;85.46;101305.59;5068119;28;19925;-76
2022/10/05 04:19:38;;;;;;;;;;;;;;;10.01;84.25;101310.97;5066493;28;19932;-74
2022/10/05 04:22:09;;;;;;;;;;;;;;;10.08;84.28;101307.19;5066307;28;19974;-75
2022/10/05 04:24:37;;;;;;;;;;;;;;;10.12;84.19;101307.00;5067418;28;19935;-75
2022/10/05 04:27:07;;;;;;;;;;;;;;;10.08;84.13;101307.19;5065486;28;19924;-75
2022/10/05 04:29:36;;;;;;;;;;;;;;;10.13;83.66;101307.81;5064851;28;19931;-75
2022/10/05 04:32:10;;;;;;;;;;;;;;;10.52;82.61;101314.09;5041874;28;19924;-75
2022/10/05 04:34:44;;;;;;;;;;;;;;;10.19;83.21;101308.47;5048974;28;19935;-76
2022/10/05 04:37:16;;;;;;;;;;;;;;;10.41;82.20;101300.56;5050226;28;19930;-75
2022/10/05 04:39:48;;;;;;;;;;;;;;;10.40;82.47;101295.38;5044547;28;20519;-75
2022/10/05 04:42:19;;;;;;;;;;;;;;;10.60;81.42;101296.25;5055663;28;20515;-75
2022/10/05 04:44:58;;;;;;;;;;;;;;;10.41;82.04;101292.72;5055412;28;19924;-75
2022/10/05 04:47:35;;;;;;;;;;;;;;;10.48;81.90;101291.53;5056879;28;20580;-77
2022/10/05 04:50:15;;;;;;;;;;;;;;;10.85;80.52;101288.19;5038257;28;19925;-76
2022/10/05 04:52:48;;;;;;;;;;;;;;;10.95;79.51;101301.72;5048342;28;19924;-77
2022/10/05 04:55:19;;;;;;;;;;;;;;;10.79;79.67;101296.28;5038246;28;19925;-77
2022/10/05 04:57:49;;;;;;;;;;;;;;;10.74;80.70;101298.28;5046813;28;19924;-77
2022/10/05 05:00:21;;;;;;;;;;;;;;;10.58;80.78;101299.84;5048612;28;19924;-78
2022/10/05 05:02:57;;;;;;;;;;;;;;;10.57;81.40;101300.75;5056342;28;19931;-78
2022/10/05 05:05:30;;;;;;;;;;;;;;;10.59;80.74;101304.19;5055347;28;19924;-78
2022/10/05 05:08:02;;;;;;;;;;;;;;;10.20;82.82;101301.44;5038410;28;20376;-78
2022/10/05 05:10:39;;;;;;;;;;;;;;;10.37;82.06;101309.50;5047640;28;19924;-78
2022/10/05 05:13:11;;;;;;;;;;;;;;;10.24;82.87;101306.50;5034545;28;19928;-78
2022/10/05 05:15:45;;;;;;;;;;;;;;;10.66;81.46;101301.25;5047049;28;20292;-78
2022/10/05 05:18:33;;;;;;;;;;;;;;;10.18;83.06;101300.66;5049487;28;19968;-78
2022/10/05 05:21:05;;;;;;;;;;;;;;;10.05;84.23;101297.66;5067517;28;19931;-78
2022/10/05 05:23:36;;;;;;;;;;;;;;;10.22;83.85;101292.63;5058393;28;19924;-77
2022/10/05 05:26:07;;;;;;;;;;;;;;;10.14;84.15;101283.34;5052077;28;19924;-77
2022/10/05 05:28:39;;;;;;;;;;;;;;;10.27;84.45;101271.47;5047160;28;19932;-78
2022/10/05 05:31:10;;;;;;;;;;;;;;;10.60;82.81;101274.44;5035306;28;20444;-77
2022/10/05 05:33:43;;;;;;;;;;;;;;;10.55;82.59;101274.63;5047607;28;20140;-76
2022/10/05 05:36:20;;;;;;;;;;;;;;;10.47;82.91;101286.34;5029288;28;19935;-76
2022/10/05 05:38:49;;;;;;;;;;;;;;;10.54;82.71;101290.41;5043607;28;20291;-78
2022/10/05 05:41:23;;;;;;;;;;;;;;;10.61;82.60;101303.19;5049624;28;19929;-77
2022/10/05 05:43:52;;;;;;;;;;;;;;;10.36;83.58;101299.91;5041098;28;20350;-77
2022/10/05 05:46:23;;;;;;;;;;;;;;;10.77;81.92;101284.16;5053537;28;20379;-77
2022/10/05 05:48:50;;;;;;;;;;;;;;;11.01;81.28;101289.19;5036503;28;19935;-77
2022/10/05 05:51:20;;;;;;;;;;;;;;;11.17;80.16;101291.97;5048295;28;20539;-77
2022/10/05 05:53:47;;;;;;;;;;;;;;;10.89;81.65;101291.50;5053450;28;19929;-78
2022/10/05 05:56:15;;;;;;;;;;;;;;;10.63;82.69;101293.50;5048064;28;20434;-77
2022/10/05 05:58:45;;;;;;;;;;;;;;;10.58;83.09;101290.22;5053494;28;19924;-77
2022/10/05 06:01:18;;;;;;;;;;;;;;;10.61;83.00;101289.22;5058673;28;20380;-77
2022/10/05 06:03:47;;;;;;;;;;;;;;;10.47;84.07;101278.47;5065051;28;19942;-77
2022/10/05 06:06:15;;;;;;;;;;;;;;;10.48;83.72;101288.91;5051911;28;20273;-77
2022/10/05 06:08:46;;;;;;;;;;;;;;;10.50;83.63;101294.94;5044826;28;20285;-77
2022/10/05 06:11:16;;;;;;;;;;;;;;;10.78;82.61;101285.88;5062324;28;19931;-77
2022/10/05 06:13:43;;;;;;;;;;;;;;;10.61;84.23;101291.84;5054101;28;19925;-77
2022/10/05 06:16:13;;;;;;;;;;;;;;;10.80;82.71;101294.53;5056164;28;19951;-77
2022/10/05 06:18:43;;;;;;;;;;;;;;;10.71;83.18;101296.66;5053461;28;19936;-77
2022/10/05 06:21:14;;;;;;;;;;;;;;;10.47;84.03;101288.97;5074273;28;19930;-77
2022/10/05 06:23:43;;;;;;;;;;;;;;;10.53;84.57;101278.25;5057659;28;19934;-77
2022/10/05 06:26:20;;;;;;;;;;;;;;;10.58;84.65;101281.50;5053471;28;19924;-77
2022/10/05 06:28:49;;;;;;;;;;;;;;;11.01;83.91;101283.94;5042967;28;19968;-76
2022/10/05 06:31:22;;;;;;;;;;;;;;;10.94;83.46;101289.56;5057890;28;20771;-76
2022/10/05 06:33:49;;;;;;;;;;;;;;;10.97;83.15;101286.78;5047095;28;19925;-76
2022/10/05 06:36:28;;;;;;;;;;;;;;;11.33;82.54;101289.50;5064570;28;22431;-76
2022/10/05 06:39:12;;;;;;;;;;;;;;;11.46;82.36;101285.38;5046573;28;20430;-77
2022/10/05 06:41:46;;;;;;;;;;;;;;;11.57;81.64;101290.97;5073570;28;25839;-76
2022/10/05 06:44:15;;;;;;;;;;;;;;;11.61;81.66;101282.03;5058547;28;19924;-76
2022/10/05 06:46:50;;;;;;;;;;;;;;;11.81;80.50;101286.38;5051798;28;19924;-76
2022/10/05 06:49:19;;;;;;;;;;;;;;;11.88;80.88;101288.66;5063887;28;19924;-77
2022/10/05 06:51:50;;;;;;;;;;;;;;;12.10;79.99;101288.44;5064235;28;19931;-76
2022/10/05 06:54:25;;;;;;;;;;;;;;;12.05;79.43;101295.69;5073745;28;19928;-76
2022/10/05 06:56:56;;;;;;;;;;;;;;;11.76;82.34;101296.25;5069241;28;19931;-76
2022/10/05 06:59:27;;;;;;;;;;;;;;;11.91;81.76;101283.22;5056091;28;20381;-76
2022/10/05 07:01:58;;;;;;;;;;;;;;;11.89;81.53;101286.88;5061342;28;19932;-76
2022/10/05 07:04:33;;;;;;;;;;;;;;;11.84;81.21;101294.13;5054583;28;19924;-77
2022/10/05 07:07:02;;;;;;;;;;;;;;;12.05;81.71;101293.06;5062665;28;19929;-77
2022/10/05 07:09:35;;;;;;;;;;;;;;;11.75;82.37;101299.81;5049716;28;19931;-77
2022/10/05 07:12:12;;;;;;;;;;;;;;;11.90;82.23;101291.22;5051124;28;19932;-75
2022/10/05 07:14:58;;;;;;;;;;;;;;;11.98;82.09;101291.66;5054830;28;20398;-75
2022/10/05 07:17:31;;;;;;;;;;;;;;;11.99;82.44;101293.38;5049734;28;19924;-74
2022/10/05 07:20:03;;;;;;;;;;;;;;;12.12;82.09;101291.88;5062289;28;20529;-75
2022/10/05 07:22:40;;;;;;;;;;;;;;;12.16;81.84;101293.38;5050401;28;19945;-75
2022/10/05 07:25:11;;;;;;;;;;;;;;;12.13;82.36;101301.44;5049574;28;19932;-76
2022/10/05 07:27:43;;;;;;;;;;;;;;;12.38;82.18;101306.34;5050590;28;19932;-76
2022/10/05 07:30:11;;;;;;;;;;;;;;;12.45;81.34;101300.66;5067589;28;19924;-75
2022/10/05 07:32:39;;;;;;;;;;;;;;;13.23;79.29;101302.75;5052013;28;19924;-76
2022/10/05 07:37:52;;;;;;;;;;;;;;;13.56;78.59;101295.66;5050501;28;20382;-75
2022/10/05 07:37:58;;;;;;;;;;;;;;;13.60;77.83;101306.88;5039058;28;20019;-75
2022/10/05 07:40:27;;;;;;;;;;;;;;;14.97;72.79;101297.09;5048032;28;19990;-75
2022/10/05 07:43:01;;;;;;;;;;;;;;;14.67;71.95;101297.16;5063311;28;19924;-75
2022/10/05 07:45:29;;;;;;;;;;;;;;;14.52;72.75;101291.00;5039686;28;19925;-75
2022/10/05 07:47:56;;;;;;;;;;;;;;;14.80;72.23;101300.78;5066165;28;19924;-75
2022/10/05 07:50:26;;;;;;;;;;;;;;;15.05;71.04;101297.50;5059054;28;19929;-76
2022/10/05 07:52:55;;;;;;;;;;;;;;;15.76;69.14;101300.06;5047752;28;20303;-74
2022/10/05 07:55:24;;;;;;;;;;;;;;;15.32;69.06;101301.06;5054966;28;20299;-75
2022/10/05 07:57:53;;;;;;;;;;;;;;;15.44;68.95;101292.38;5069816;28;19928;-75
2022/10/05 08:00:23;;;;;;;;;;;;;;;15.88;68.23;101294.88;5059200;28;19925;-75
2022/10/05 08:02:52;;;;;;;;;;;;;;;16.63;66.77;101293.38;5058922;28;19928;-74
2022/10/05 08:05:21;;;;;;;;;;;;;;;17.79;64.05;101278.09;5039673;28;19924;-74
2022/10/05 08:07:51;;;;;;;;;;;;;;;18.06;61.67;101277.88;5046433;28;20341;-75
2022/10/05 08:10:22;;;;;;;;;;;;;;;18.23;60.66;101288.91;5052495;28;19930;-74
2022/10/05 08:12:59;;;;;;;;;;;;;;;18.86;60.30;101287.66;5039001;28;19929;-75
2022/10/05 08:15:30;;;;;;;;;;;;;;;18.54;61.96;101278.66;5049225;28;20406;-75
2022/10/05 08:17:59;;;;;;;;;;;;;;;18.66;60.68;101270.59;5046997;28;19928;-74
2022/10/05 08:20:35;;;;;;;;;;;;;;;18.26;60.58;101267.44;5055441;28;19925;-74
2022/10/05 08:23:04;;;;;;;;;;;;;;;17.60;63.84;101269.78;5040987;28;19925;-75
2022/10/05 08:25:36;;;;;;;;;;;;;;;17.84;63.83;101274.16;5042218;28;19928;-75
2022/10/05 08:28:04;;;;;;;;;;;;;;;18.51;62.20;101258.50;5067876;28;19935;-74
2022/10/05 08:30:33;;;;;;;;;;;;;;;18.57;61.83;101259.84;5044421;28;19928;-75
2022/10/05 08:33:02;;;;;;;;;;;;;;;19.36;60.87;101260.59;5041166;28;19931;-74
2022/10/05 08:35:32;;;;;;;;;;;;;;;19.24;58.26;101263.41;5049091;28;19978;-74
2022/10/05 08:37:59;;;;;;;;;;;;;;;18.22;60.61;101262.47;5039449;28;19931;-74
2022/10/05 08:40:40;;;;;;;;;;;;;;;18.48;61.63;101256.03;5056940;28;20291;-76
2022/10/05 08:43:19;;;;;;;;;;;;;;;18.93;60.92;101254.31;5039818;28;19931;-77
2022/10/05 08:45:55;;;;;;;;;;;;;;;18.53;60.95;101261.03;5063227;28;19924;-77
2022/10/05 08:48:39;;;;;;;;;;;;;;;19.23;59.15;101257.22;5054930;28;19924;-74
2022/10/05 08:51:18;;;;;;;;;;;;;;;19.72;57.88;101258.63;5059793;28;19924;-75
2022/10/05 08:54:03;;;;;;;;;;;;;;;19.43;58.11;101251.22;5040983;28;19925;-76
2022/10/05 08:56:34;;;;;;;;;;;;;;;20.31;58.65;101253.69;5051749;28;19931;-75
2022/10/05 08:59:10;;;;;;;;;;;;;;;20.18;55.71;101253.00;5038143;28;19935;-76
2022/10/05 09:01:48;;;;;;;;;;;;;;;20.61;56.25;101255.59;5056715;28;20377;-76
2022/10/05 09:04:27;;;;;;;;;;;;;;;21.06;55.05;101243.63;5056619;28;19990;-76
2022/10/05 09:07:07;;;;;;;;;;;;;;;20.60;53.98;101245.91;5047608;28;19925;-77
2022/10/05 09:09:44;;;;;;;;;;;;;;;20.06;57.16;101246.91;5037273;28;19931;-76
2022/10/05 09:12:25;;;;;;;;;;;;;;;20.28;57.47;101253.97;5047745;28;20376;-75
2022/10/05 09:14:56;;;;;;;;;;;;;;;20.65;57.09;101244.53;5044173;28;20488;-75
2022/10/05 09:17:29;;;;;;;;;;;;;;;21.38;52.80;101247.94;5047038;28;20361;-76
2022/10/05 09:20:06;;;;;;;;;;;;;;;21.27;53.27;101243.56;5037974;28;20386;-76
2022/10/05 09:22:38;;;;;;;;;;;;;;;21.61;54.25;101241.41;5047561;28;20446;-75
2022/10/05 09:25:14;;;;;;;;;;;;;;;20.28;54.77;101244.16;5039805;28;19931;-73
2022/10/05 09:27:44;;;;;;;;;;;;;;;21.05;55.09;101238.41;5065131;28;19936;-73
2022/10/05 09:30:14;;;;;;;;;;;;;;;20.91;53.79;101249.44;5033697;28;20019;-73
2022/10/05 09:32:52;;;;;;;;;;;;;;;20.11;57.46;101238.50;5042569;28;19928;-73
2022/10/05 09:35:29;;;;;;;;;;;;;;;20.89;54.66;101241.56;5048094;28;19932;-73
2022/10/05 09:38:13;;;;;;;;;;;;;;;20.13;55.87;101234.75;5037073;28;19924;-73
2022/10/05 09:40:54;;;;;;;;;;;;;;;19.54;58.13;101245.00;5047377;28;20344;-72
2022/10/05 09:43:33;;;;;;;;;;;;;;;19.32;60.10;101231.72;5024171;28;19924;-73
2022/10/05 09:46:14;;;;;;;;;;;;;;;19.57;59.10;101233.28;5048357;28;19924;-73
2022/10/05 09:49:00;;;;;;;;;;;;;;;20.66;57.23;101235.53;5044918;28;19932;-74
2022/10/05 09:51:44;;;;;;;;;;;;;;;21.51;54.54;101217.38;5038575;28;19982;-73
2022/10/05 09:54:27;;;;;;;;;;;;;;;22.14;52.46;101231.19;5046742;28;19925;-73
2022/10/05 09:57:15;;;;;;;;;;;;;;;22.39;50.74;101225.28;5047052;28;19925;-73
2022/10/05 09:59:59;;;;;;;;;;;;;;;22.26;50.79;101225.56;5022751;28;20407;-73
2022/10/05 10:02:37;;;;;;;;;;;;;;;22.09;52.78;101230.78;5065595;28;20376;-73
2022/10/05 10:05:19;;;;;;;;;;;;;;;21.29;53.72;101239.78;5047134;28;20288;-73
2022/10/05 10:07:54;;;;;;;;;;;;;;;20.47;54.80;101239.94;5047349;28;19924;-73
2022/10/05 10:10:39;;;;;;;;;;;;;;;20.47;56.25;101240.78;5035615;28;20441;-73
2022/10/05 10:13:16;;;;;;;;;;;;;;;21.02;54.92;101236.88;5047662;28;19924;-73
2022/10/05 10:15:59;;;;;;;;;;;;;;;21.61;53.34;101233.41;5036737;28;19924;-73
2022/10/05 10:18:33;;;;;;;;;;;;;;;21.25;54.75;101234.84;5047465;28;19932;-73
2022/10/05 10:21:13;;;;;;;;;;;;;;;20.68;54.66;101238.09;5041320;28;19933;-73
2022/10/05 10:24:06;;;;;;;;;;;;;;;20.72;55.63;101234.19;5046954;28;20115;-73
2022/10/05 10:26:48;;;;;;;;;;;;;;;20.93;55.70;101242.97;4987001;28;20411;-73
2022/10/05 10:29:26;;;;;;;;;;;;;;;20.85;55.29;101234.81;5035967;28;19925;-73
2022/10/05 10:32:25;;;;;;;;;;;;;;;20.65;56.03;101233.88;5046787;28;20377;-73
2022/10/05 10:35:02;;;;;;;;;;;;;;;21.49;55.15;101222.00;4966229;28;20079;-73
2022/10/05 10:37:37;;;;;;;;;;;;;;;22.05;53.12;101230.25;4973288;28;19930;-73
2022/10/05 10:40:14;;;;;;;;;;;;;;;22.02;54.17;101233.19;5023862;28;19931;-73
2022/10/05 10:42:47;;;;;;;;;;;;;;;22.65;53.74;101231.66;5052065;28;19925;-73
2022/10/05 10:45:19;;;;;;;;;;;;;;;23.42;51.01;101219.88;5051278;28;19924;-73
2022/10/05 10:47:58;;;;;;;;;;;;;;;23.16;49.54;101220.53;5050820;28;19980;-73
2022/10/05 10:50:33;;;;;;;;;;;;;;;23.09;51.27;101215.94;5046665;28;20672;-73
2022/10/05 10:53:08;;;;;;;;;;;;;;;23.66;49.21;101209.41;5050929;28;20284;-73
2022/10/05 10:55:38;;;;;;;;;;;;;;;23.50;48.74;101203.91;5040679;28;20300;-73
2022/10/05 10:58:28;;;;;;;;;;;;;;;22.22;51.02;101213.47;5050819;28;20379;-73
2022/10/05 11:01:02;;;;;;;;;;;;;;;22.18;50.52;101211.22;5046269;28;19940;-73
2022/10/05 11:03:45;;;;;;;;;;;;;;;22.74;51.77;101203.25;5068251;28;19931;-73
2022/10/05 11:06:17;;;;;;;;;;;;;;;24.07;50.77;101198.06;5050494;28;19980;-73
2022/10/05 11:09:01;;;;;;;;;;;;;;;24.75;46.32;101206.28;5049489;28;19924;-73
2022/10/05 11:11:46;;;;;;;;;;;;;;;25.22;46.63;101187.88;5051090;28;19928;-73
2022/10/05 11:14:25;;;;;;;;;;;;;;;25.55;46.45;101186.16;5050571;28;19932;-73
2022/10/05 11:17:09;;;;;;;;;;;;;;;25.25;44.62;101184.88;5049862;28;19935;-73
2022/10/05 11:19:48;;;;;;;;;;;;;;;25.77;44.66;101188.19;5031692;28;20404;-73
2022/10/05 11:22:30;;;;;;;;;;;;;;;26.22;42.27;101181.50;5048893;28;19931;-73
2022/10/05 11:25:07;;;;;;;;;;;;;;;26.15;41.63;101175.94;5037470;28;19947;-73
2022/10/05 11:27:40;;;;;;;;;;;;;;;26.09;41.86;101172.06;5051093;28;20304;-73
2022/10/05 11:30:21;;;;;;;;;;;;;;;26.06;43.17;101172.41;5059032;28;20296;-73
2022/10/05 11:33:03;;;;;;;;;;;;;;;26.38;44.78;101173.44;5050116;28;20023;-73
2022/10/05 11:35:38;;;;;;;;;;;;;;;26.84;44.88;101163.72;5040577;28;19936;-73
2022/10/05 11:38:15;;;;;;;;;;;;;;;27.03;40.70;101169.53;5049585;28;19925;-73
2022/10/05 11:40:57;;;;;;;;;;;;;;;27.11;38.64;101163.28;5020645;28;20349;-73
2022/10/05 11:43:56;;;;;;;;;;;;;;;27.16;38.10;101162.75;5048721;28;20288;-73
2022/10/05 11:46:27;;;;;;;;;;;;;;;26.56;39.10;101163.31;4968185;28;19926;-73
2022/10/05 11:49:15;;;;;;;;;;;;;;;26.16;40.12;101156.94;4964302;28;20394;-73
2022/10/05 11:51:50;;;;;;;;;;;;;;;25.30;40.96;101161.06;5031383;28;19924;-73
2022/10/05 11:54:31;;;;;;;;;;;;;;;25.85;43.46;101153.28;5059580;28;19924;-73
2022/10/05 11:57:03;;;;;;;;;;;;;;;25.92;41.43;101156.13;5058632;28;20338;-73
2022/10/05 11:59:33;;;;;;;;;;;;;;;25.73;42.48;101154.63;5038175;28;19932;-73
2022/10/05 12:02:05;;;;;;;;;;;;;;;25.88;41.98;101152.09;5057886;28;19950;-73
2022/10/05 12:04:36;;;;;;;;;;;;;;;25.98;42.60;101160.81;5059198;28;19925;-73
2022/10/05 12:07:09;;;;;;;;;;;;;;;26.02;42.37;101144.19;5051664;28;19932;-73
2022/10/05 12:12:34;;;;;;;;;;;;;;;26.06;45.10;101144.69;5048681;28;19925;-73
2022/10/05 12:15:03;;;;;;;;;;;;;;;25.88;41.14;101138.66;5050050;28;19978;-73
2022/10/05 12:17:34;;;;;;;;;;;;;;;25.71;41.57;101140.53;5038599;28;19931;-73
2022/10/05 12:20:03;;;;;;;;;;;;;;;25.09;43.02;101129.31;5057374;28;19931;-73
2022/10/05 12:22:31;;;;;;;;;;;;;;;25.43;41.97;101120.31;5067715;28;19931;-73
2022/10/05 12:25:02;;;;;;;;;;;;;;;25.52;41.53;101120.22;5069859;28;19932;-73
2022/10/05 12:27:31;;;;;;;;;;;;;;;25.63;42.28;101114.50;5047486;28;19947;-73
2022/10/05 12:30:02;;;;;;;;;;;;;;;26.04;42.19;101114.47;5034632;28;19925;-73
2022/10/05 12:32:33;;;;;;;;;;;;;;;25.76;39.95;101111.28;5045860;28;20443;-73
2022/10/05 12:35:04;;;;;;;;;;;;;;;25.89;41.24;101113.47;5067711;28;19924;-72
2022/10/05 12:37:37;;;;;;;;;;;;;;;25.86;40.19;101111.97;5050630;28;19924;-72
2022/10/05 12:40:06;;;;;;;;;;;;;;;25.49;41.61;101111.59;5047243;28;19974;-72
2022/10/05 12:42:36;;;;;;;;;;;;;;;25.16;42.38;101110.72;5039679;28;20576;-72
2022/10/05 12:45:12;;;;;;;;;;;;;;;25.09;41.95;101107.84;5049297;28;19931;-72
2022/10/05 12:47:44;;;;;;;;;;;;;;;24.94;41.26;101109.50;5074013;28;19978;-72
2022/10/05 12:50:14;;;;;;;;;;;;;;;24.42;42.40;101113.25;5076926;28;20029;-73
2022/10/05 12:52:46;;;;;;;;;;;;;;;24.38;42.11;101106.53;5086685;28;20598;-72
2022/10/05 12:55:15;;;;;;;;;;;;;;;24.31;43.95;101110.84;5087674;28;19928;-72
2022/10/05 12:57:46;;;;;;;;;;;;;;;24.21;44.04;101103.75;5087669;28;19924;-73
2022/10/05 13:00:14;;;;;;;;;;;;;;;24.09;44.15;101093.44;5062349;28;19979;-73
2022/10/05 13:02:43;;;;;;;;;;;;;;;24.37;44.43;101091.44;5054686;28;19925;-72
2022/10/05 13:05:21;;;;;;;;;;;;;;;24.59;43.49;101091.72;5067185;28;19924;-73
2022/10/05 13:08:08;;;;;;;;;;;;;;;24.93;43.37;101090.88;5066913;28;19972;-73